M I D A S
Marine Information and Data Acquisition System
Tripno 1017 of the Zeeleeuw from 2005-10-12 06:25:38 to 2005-10-12 13:09:30
Back to CruiseResearch ActivitiesStationsMapUnderway DataData graphs

EquipmentUnitsComments
TimeDGPSUTC
LatitudeDGPSDM.mWGS84
LongitudeDGPSDM.mWGS84
SpeedMeteo Stationm/sRelative wind speed
DirectionMeteo StationdegRelative wind direction
TemperatureMeteo Stationdeg CelciusAir temperature
PressureMeteo StationPaAtmospheric pressure
HumidityMeteo Station%Relative humidity
Missing or incorrect values are displayed as -999
Metereological data collected by the RV Zeeleeuw from 2005-10-12 06:26:49 to 2005-10-12 13:18:30
Time Latitude Longitude Speed Direction Temperature Pressure Humidity
2005-10-12 06:27 51°13.613 2°56.043 -999 110 14.6 101200 86
2005-10-12 06:28 51°13.639 2°55.946 -999 83 14.6 101200 86
2005-10-12 06:29 51°13.673 2°55.839 -999 109 14.6 101200 86
2005-10-12 06:30 51°13.688 2°55.754 -999 124 14.6 101200 86
2005-10-12 06:31 51°13.697 2°55.744 -999 144 14.6 101200 86
2005-10-12 06:32 51°13.747 2°55.721 -999 300 14.6 101200 86
2005-10-12 06:33 51°13.852 2°55.62 -999 300 14.6 101200 87
2005-10-12 06:34 51°14.016 2°55.5 -999 338 14.6 101200 86
2005-10-12 06:35 51°14.179 2°55.373 -999 263 14.6 101200 86
2005-10-12 06:36 51°14.319 2°55.16 -999 309 14.7 101200 86
2005-10-12 06:37 51°14.49 2°54.971 -999 186 14.7 101200 86
2005-10-12 06:38 51°14.682 2°54.808 -999 186 14.8 101190 86
2005-10-12 06:39 51°14.875 2°54.64 -999 324 14.9 101190 86
2005-10-12 06:40 51°15.066 2°54.467 -999 261 14.9 101190 85
2005-10-12 06:41 51°15.257 2°54.293 -999 285 14.9 101200 85
2005-10-12 06:42 51°15.449 2°54.12 -999 258 15 101200 85
2005-10-12 06:43 51°15.641 2°53.946 -999 301 15 101200 85
2005-10-12 06:44 51°15.832 2°53.772 -999 282 15.1 101200 85
2005-10-12 06:45 51°16.025 2°53.6 -999 315 15.1 101200 85
2005-10-12 06:46 51°16.217 2°53.428 -999 292 15.1 101200 86
2005-10-12 06:47 51°16.408 2°53.258 -999 291 15.1 101200 85
2005-10-12 06:48 51°16.599 2°53.088 -999 276 15.2 101200 86
2005-10-12 06:49 51°16.789 2°52.917 -999 288 15.2 101200 85
2005-10-12 06:50 51°16.979 2°52.742 -999 269 15.2 101210 85
2005-10-12 06:51 51°17.172 2°52.568 -999 258 15.2 101200 85
2005-10-12 06:52 51°17.364 2°52.391 -999 283 15.2 101200 85
2005-10-12 06:53 51°17.557 2°52.214 -999 254 15.2 101200 86
2005-10-12 06:54 51°17.748 2°52.035 -999 267 15.2 101200 86
2005-10-12 06:55 51°17.94 2°51.855 -999 274 15.3 101200 86
2005-10-12 06:56 51°18.132 2°51.677 -999 263 15.3 101200 86
2005-10-12 06:57 51°18.323 2°51.497 -999 260 15.3 101200 86
2005-10-12 06:58 51°18.515 2°51.318 -999 277 15.2 101200 86
2005-10-12 06:59 51°18.707 2°51.138 -999 271 15.2 101210 86
2005-10-12 07:00 51°18.902 2°50.962 -999 260 15.3 101200 86
2005-10-12 07:01 51°19.098 2°50.785 -999 272 15.2 101210 86
2005-10-12 07:02 51°19.293 2°50.61 -999 285 15.2 101210 86
2005-10-12 07:03 51°19.486 2°50.433 -999 277 15.2 101200 86
2005-10-12 07:04 51°19.677 2°50.256 -999 263 15.3 101210 87
2005-10-12 07:05 51°19.868 2°50.079 -999 271 15.3 101210 87
2005-10-12 07:06 51°20.062 2°49.903 -999 271 15.3 101210 87
2005-10-12 07:07 51°20.259 2°49.733 -999 265 15.3 101210 87
2005-10-12 07:08 51°20.461 2°49.576 -999 262 15.2 101210 87
2005-10-12 07:09 51°20.662 2°49.418 -999 284 15.2 101210 88
2005-10-12 07:10 51°20.864 2°49.259 -999 279 15.2 101200 88
2005-10-12 07:11 51°21.067 2°49.101 -999 270 15.2 101210 88
2005-10-12 07:12 51°21.277 2°48.965 -999 250 15.2 101210 88
2005-10-12 07:13 51°21.498 2°48.862 -999 259 15.2 101210 88
2005-10-12 07:14 51°21.725 2°48.779 -999 262 15.2 101210 88
2005-10-12 07:15 51°21.933 2°48.642 -999 289 15.2 101210 88
2005-10-12 07:16 51°22.121 2°48.456 -999 269 15.3 101210 88
2005-10-12 07:17 51°22.304 2°48.26 -999 270 15.3 101210 88
2005-10-12 07:18 51°22.484 2°48.061 -999 270 15.3 101210 88
2005-10-12 07:19 51°22.667 2°47.864 -999 278 15.3 101210 88
2005-10-12 07:20 51°22.851 2°47.667 -999 274 15.3 101210 89
2005-10-12 07:21 51°23.035 2°47.471 -999 287 15.3 101210 89
2005-10-12 07:22 51°23.219 2°47.274 -999 273 15.3 101210 89
2005-10-12 07:23 51°23.402 2°47.076 -999 275 15.4 101210 89
2005-10-12 07:24 51°23.587 2°46.881 -999 278 15.4 101220 89
2005-10-12 07:25 51°23.773 2°46.685 -999 290 15.4 101210 89
2005-10-12 07:26 51°23.959 2°46.49 -999 286 15.4 101220 89
2005-10-12 07:27 51°24.146 2°46.293 -999 280 15.4 101220 89
2005-10-12 07:28 51°24.333 2°46.098 -999 277 15.4 101210 90
2005-10-12 07:29 51°24.52 2°45.903 -999 289 15.4 101220 90
2005-10-12 07:30 51°24.71 2°45.711 -999 289 15.4 101210 90
2005-10-12 07:31 51°24.894 2°45.506 -999 285 15.4 101220 91
2005-10-12 07:32 51°25.068 2°45.289 -999 275 15.4 101220 91
2005-10-12 07:33 51°25.241 2°45.074 -999 269 15.5 101210 91
2005-10-12 07:34 51°25.414 2°44.858 -999 268 15.5 101210 91
2005-10-12 07:35 51°25.584 2°44.636 -999 273 15.5 101210 91
2005-10-12 07:36 51°25.754 2°44.415 -999 281 15.5 101210 91
2005-10-12 07:37 51°25.923 2°44.196 -999 266 15.5 101210 91
2005-10-12 07:38 51°25.992 2°44.055 -999 274 15.5 101210 91
2005-10-12 07:39 51°26.008 2°44.03 -999 279 15.5 101210 91
2005-10-12 07:40 51°26.029 2°44.042 -999 275 15.5 101210 91
2005-10-12 07:41 51°26.051 2°44.051 -999 280 15.5 101200 91
2005-10-12 07:42 51°26.071 2°44.055 -999 277 15.6 101200 92
2005-10-12 07:43 51°26.09 2°44.061 -999 289 15.5 101200 91
2005-10-12 07:44 51°26.111 2°44.069 -999 281 15.6 101210 91
2005-10-12 07:45 51°26.132 2°44.08 -999 283 15.6 101210 91
2005-10-12 07:46 51°26.154 2°44.094 -999 268 15.6 101210 91
2005-10-12 07:47 51°26.177 2°44.106 -999 265 15.6 101220 91
2005-10-12 07:48 51°26.199 2°44.114 -999 281 15.6 101220 90
2005-10-12 07:49 51°26.215 2°44.115 -999 297 15.6 101210 91
2005-10-12 07:50 51°26.229 2°44.114 -999 309 15.6 101210 91
2005-10-12 07:51 51°26.241 2°44.113 -999 315 15.6 101210 91
2005-10-12 07:52 51°26.25 2°44.115 -999 328 15.6 101220 91
2005-10-12 07:53 51°26.256 2°44.119 -999 347 15.6 101220 91
2005-10-12 07:54 51°26.243 2°44.147 -999 47 15.6 101220 90
2005-10-12 07:55 51°26.194 2°44.261 -999 11 15.7 101210 91
2005-10-12 07:56 51°26.09 2°44.257 -999 348 15.7 101210 90
2005-10-12 07:57 51°26.019 2°44.165 -999 329 15.7 101200 91
2005-10-12 07:58 51°25.981 2°44.112 -999 324 15.7 101210 90
2005-10-12 07:59 51°25.971 2°44.1 -999 333 15.7 101210 91
2005-10-12 08:00 51°25.973 2°44.099 -999 334 15.7 101210 91
2005-10-12 08:01 51°25.97 2°44.097 -999 348 15.7 101220 92
2005-10-12 08:02 51°25.931 2°44.115 -999 10 15.6 101220 92
2005-10-12 08:03 51°25.904 2°44.127 -999 339 15.6 101220 92
2005-10-12 08:04 51°25.887 2°44.109 -999 333 15.5 101210 92
2005-10-12 08:05 51°25.842 2°44.055 -999 337 15.4 101210 92
2005-10-12 08:06 51°25.784 2°43.986 -999 325 15.3 101210 93
2005-10-12 08:07 51°25.756 2°43.916 -999 319 15.2 101200 93
2005-10-12 08:08 51°25.733 2°43.858 -999 314 15.3 101210 94
2005-10-12 08:09 51°25.708 2°43.799 -999 318 15.2 101200 95
2005-10-12 08:10 51°25.686 2°43.734 -999 318 15.2 101210 95
2005-10-12 08:11 51°25.664 2°43.671 -999 44 15.2 101210 95
2005-10-12 08:12 51°25.646 2°43.611 -999 316 15.2 101210 95
2005-10-12 08:13 51°25.626 2°43.558 -999 319 15.2 101210 95
2005-10-12 08:14 51°25.608 2°43.506 -999 316 15.2 101210 95
2005-10-12 08:15 51°25.588 2°43.457 -999 324 15.3 101220 95
2005-10-12 08:16 51°25.565 2°43.406 -999 320 15.3 101210 95
2005-10-12 08:17 51°25.54 2°43.351 -999 325 15.4 101210 95
2005-10-12 08:18 51°25.516 2°43.295 -999 324 15.4 101210 94
2005-10-12 08:19 51°25.49 2°43.239 -999 320 15.4 101220 94
2005-10-12 08:20 51°25.465 2°43.181 -999 332 15.4 101210 94
2005-10-12 08:21 51°25.439 2°43.125 -999 321 15.4 101220 94
2005-10-12 08:22 51°25.413 2°43.067 -999 324 15.4 101220 94
2005-10-12 08:23 51°25.387 2°43.009 -999 319 15.4 101210 94
2005-10-12 08:24 51°25.361 2°42.95 -999 321 15.4 101210 94
2005-10-12 08:25 51°25.337 2°42.894 -999 328 15.4 101220 94
2005-10-12 08:26 51°25.314 2°42.838 -999 326 15.4 101220 93
2005-10-12 08:27 51°25.29 2°42.786 -999 324 15.5 101230 94
2005-10-12 08:28 51°25.266 2°42.732 -999 325 15.5 101230 93
2005-10-12 08:29 51°25.243 2°42.674 -999 323 15.6 101230 94
2005-10-12 08:30 51°25.22 2°42.619 -999 323 15.5 101230 94
2005-10-12 08:31 51°25.196 2°42.565 -999 317 15.5 101220 93
2005-10-12 08:32 51°25.174 2°42.508 -999 315 15.6 101230 93
2005-10-12 08:33 51°25.149 2°42.453 -999 316 15.6 101230 93
2005-10-12 08:34 51°25.126 2°42.394 -999 42 15.6 101220 93
2005-10-12 08:35 51°25.101 2°42.339 -999 319 15.6 101230 93
2005-10-12 08:36 51°25.077 2°42.281 -999 321 15.6 101230 93
2005-10-12 08:37 51°25.059 2°42.218 -999 42 15.6 101220 93
2005-10-12 08:38 51°25.044 2°42.154 -999 312 15.6 101230 92
2005-10-12 08:39 51°25.03 2°42.092 -999 310 15.7 101220 92
2005-10-12 08:40 51°25.02 2°42.026 -999 303 15.7 101230 92
2005-10-12 08:41 51°25.024 2°41.951 -999 285 15.7 101230 93
2005-10-12 08:42 51°25.05 2°41.871 -999 259 15.7 101230 92
2005-10-12 08:43 51°25.083 2°41.817 -999 259 15.7 101240 92
2005-10-12 08:44 51°25.108 2°41.784 -999 261 15.7 101240 92
2005-10-12 08:45 51°25.128 2°41.757 -999 284 15.7 101240 92
2005-10-12 08:46 51°25.093 2°41.702 -999 358 15.7 101230 92
2005-10-12 08:47 51°24.987 2°41.823 -999 25 15.7 101210 92
2005-10-12 08:48 51°24.844 2°42.057 -999 28 15.7 101200 92
2005-10-12 08:49 51°24.722 2°42.336 -999 34 15.7 101210 92
2005-10-12 08:50 51°24.612 2°42.632 -999 30 15.7 101210 92
2005-10-12 08:51 51°24.499 2°42.925 -999 29 15.7 101200 92
2005-10-12 08:52 51°24.388 2°43.227 -999 34 15.7 101200 92
2005-10-12 08:53 51°24.283 2°43.523 -999 35 15.8 101200 91
2005-10-12 08:54 51°24.175 2°43.823 -999 33 15.8 101210 91
2005-10-12 08:55 51°24.068 2°44.125 -999 32 15.8 101210 91
2005-10-12 08:56 51°24.021 2°44.463 -999 51 15.9 101200 90
2005-10-12 08:57 51°23.933 2°44.78 -999 32 15.9 101210 89
2005-10-12 08:58 51°23.819 2°45.072 -999 30 16 101210 90
2005-10-12 08:59 51°23.697 2°45.355 -999 30 16 101210 90
2005-10-12 09:00 51°23.576 2°45.638 -999 29 15.9 101220 90
2005-10-12 09:01 51°23.456 2°45.92 -999 27 16 101220 90
2005-10-12 09:02 51°23.336 2°46.201 -999 30 15.9 101220 90
2005-10-12 09:03 51°23.217 2°46.486 -999 28 15.9 101220 90
2005-10-12 09:04 51°23.097 2°46.769 -999 27 15.9 101220 90
2005-10-12 09:05 51°22.978 2°47.055 -999 33 15.9 101220 90
2005-10-12 09:06 51°22.884 2°47.367 -999 33 15.9 101210 90
2005-10-12 09:07 51°22.796 2°47.685 -999 33 15.9 101220 90
2005-10-12 09:08 51°22.728 2°48.007 -999 33 15.9 101210 89
2005-10-12 09:09 51°22.681 2°48.236 -999 39 15.9 101230 90
2005-10-12 09:10 51°22.666 2°48.407 -999 45 15.9 101240 89
2005-10-12 09:11 51°22.648 2°48.548 -999 39 15.9 101240 90
2005-10-12 09:12 51°22.625 2°48.682 -999 33 15.9 101240 90
2005-10-12 09:13 51°22.565 2°48.805 -999 13 15.9 101240 90
2005-10-12 09:14 51°22.479 2°48.912 -999 359 15.9 101250 90
2005-10-12 09:15 51°22.382 2°49 -999 14 15.9 101240 90
2005-10-12 09:16 51°22.294 2°49.125 -999 16 15.9 101250 90
2005-10-12 09:17 51°22.198 2°49.226 -999 5 15.9 101240 90
2005-10-12 09:18 51°22.112 2°49.32 -999 360 15.9 101240 90
2005-10-12 09:19 51°22.062 2°49.333 -999 317 15.9 101250 90
2005-10-12 09:20 51°22.064 2°49.332 -999 285 16 101270 91
2005-10-12 09:21 51°22.074 2°49.328 -999 271 15.9 101270 91
2005-10-12 09:22 51°22.086 2°49.325 -999 278 15.9 101280 90
2005-10-12 09:23 51°22.098 2°49.326 -999 286 16 101270 91
2005-10-12 09:24 51°22.11 2°49.33 -999 283 16 101270 90
2005-10-12 09:25 51°22.124 2°49.336 -999 289 16 101270 91
2005-10-12 09:26 51°22.139 2°49.341 -999 287 16 101270 91
2005-10-12 09:27 51°22.154 2°49.35 -999 283 16 101270 90
2005-10-12 09:28 51°22.169 2°49.359 -999 281 16 101270 90
2005-10-12 09:29 51°22.182 2°49.363 -999 291 16 101270 90
2005-10-12 09:30 51°22.182 2°49.356 -999 41 16 101270 90
2005-10-12 09:31 51°22.176 2°49.359 -999 337 16 101260 90
2005-10-12 09:32 51°22.166 2°49.375 -999 2 16.1 101250 89
2005-10-12 09:33 51°22.158 2°49.448 -999 79 16 101250 89
2005-10-12 09:34 51°22.234 2°49.553 -999 107 16 101260 89
2005-10-12 09:35 51°22.385 2°49.69 -999 84 16 101260 90
2005-10-12 09:36 51°22.524 2°49.889 -999 79 16.1 101260 90
2005-10-12 09:37 51°22.623 2°50.136 -999 68 16 101250 90
2005-10-12 09:38 51°22.691 2°50.31 -999 88 15.9 101260 89
2005-10-12 09:39 51°22.73 2°50.427 -999 80 16 101260 90
2005-10-12 09:40 51°22.755 2°50.527 -999 80 16 101250 89
2005-10-12 09:41 51°22.778 2°50.612 -999 79 16 101250 90
2005-10-12 09:42 51°22.8 2°50.693 -999 79 16.1 101250 90
2005-10-12 09:43 51°22.822 2°50.771 -999 83 16 101250 90
2005-10-12 09:44 51°22.845 2°50.848 -999 81 16 101250 90
2005-10-12 09:45 51°22.87 2°50.919 -999 89 16 101250 90
2005-10-12 09:46 51°22.896 2°50.985 -999 87 16 101250 90
2005-10-12 09:47 51°22.921 2°51.048 -999 84 16 101260 90
2005-10-12 09:48 51°22.945 2°51.111 -999 81 16 101250 90
2005-10-12 09:49 51°22.966 2°51.175 -999 73 16 101260 90
2005-10-12 09:50 51°22.985 2°51.237 -999 78 16 101260 90
2005-10-12 09:51 51°23.002 2°51.3 -999 79 16 101260 90
2005-10-12 09:52 51°23.019 2°51.363 -999 83 16 101260 89
2005-10-12 09:53 51°23.034 2°51.429 -999 73 16.1 101260 90
2005-10-12 09:54 51°23.046 2°51.494 -999 75 16.1 101260 89
2005-10-12 09:55 51°23.058 2°51.559 -999 81 16.1 101260 89
2005-10-12 09:56 51°23.072 2°51.624 -999 83 16.1 101270 89
2005-10-12 09:57 51°23.09 2°51.688 -999 95 16.2 101270 89
2005-10-12 09:58 51°23.108 2°51.752 -999 91 16.2 101270 89
2005-10-12 09:59 51°23.128 2°51.817 -999 96 16.2 101270 88
2005-10-12 10:00 51°23.15 2°51.882 -999 89 16.2 101270 88
2005-10-12 10:01 51°23.173 2°51.947 -999 99 16.2 101270 87
2005-10-12 10:02 51°23.196 2°52.012 -999 98 16.3 101270 87
2005-10-12 10:03 51°23.221 2°52.076 -999 93 16.3 101270 88
2005-10-12 10:04 51°23.244 2°52.14 -999 84 16.3 101270 88
2005-10-12 10:05 51°23.265 2°52.206 -999 83 16.3 101270 88
2005-10-12 10:06 51°23.284 2°52.276 -999 83 16.3 101260 88
2005-10-12 10:07 51°23.303 2°52.348 -999 80 16.3 101260 88
2005-10-12 10:08 51°23.318 2°52.431 -999 70 16.3 101260 88
2005-10-12 10:09 51°23.329 2°52.532 -999 67 16.3 101260 88
2005-10-12 10:10 51°23.339 2°52.618 -999 62 16.3 101260 87
2005-10-12 10:11 51°23.347 2°52.68 -999 60 16.3 101250 88
2005-10-12 10:12 51°23.358 2°52.728 -999 64 16.4 101260 88
2005-10-12 10:13 51°23.362 2°52.793 -999 31 16.4 101250 87
2005-10-12 10:14 51°23.277 2°52.86 -999 354 16.4 101250 87
2005-10-12 10:15 51°23.086 2°52.835 -999 350 16.5 101230 87
2005-10-12 10:16 51°22.888 2°52.737 -999 340 16.5 101230 86
2005-10-12 10:17 51°22.696 2°52.643 -999 347 16.5 101230 86
2005-10-12 10:18 51°22.502 2°52.549 -999 345 16.5 101230 86
2005-10-12 10:19 51°22.307 2°52.452 -999 345 16.5 101220 86
2005-10-12 10:20 51°22.11 2°52.357 -999 343 16.6 101220 85
2005-10-12 10:21 51°21.913 2°52.264 -999 343 16.6 101230 85
2005-10-12 10:22 51°21.716 2°52.172 -999 344 16.6 101220 85
2005-10-12 10:23 51°21.516 2°52.077 -999 344 16.6 101220 84
2005-10-12 10:24 51°21.323 2°51.985 -999 348 16.6 101240 84
2005-10-12 10:25 51°21.127 2°51.893 -999 347 16.6 101230 84
2005-10-12 10:26 51°20.932 2°51.792 -999 344 16.6 101240 84
2005-10-12 10:27 51°20.734 2°51.688 -999 347 16.6 101230 84
2005-10-12 10:28 51°20.536 2°51.585 -999 344 16.6 101240 84
2005-10-12 10:29 51°20.337 2°51.483 -999 346 16.6 101240 84
2005-10-12 10:30 51°20.141 2°51.384 -999 349 16.6 101250 84
2005-10-12 10:31 51°19.947 2°51.283 -999 349 16.6 101240 84
2005-10-12 10:32 51°19.75 2°51.177 -999 350 16.6 101240 84
2005-10-12 10:33 51°19.558 2°51.073 -999 345 16.6 101250 84
2005-10-12 10:34 51°19.361 2°50.969 -999 350 16.7 101250 84
2005-10-12 10:35 51°19.162 2°50.864 -999 348 16.7 101250 84
2005-10-12 10:36 51°18.963 2°50.757 -999 349 16.7 101250 85
2005-10-12 10:37 51°18.763 2°50.65 -999 349 16.7 101250 85
2005-10-12 10:38 51°18.562 2°50.541 -999 348 16.7 101240 84
2005-10-12 10:39 51°18.36 2°50.436 -999 347 16.8 101240 84
2005-10-12 10:40 51°18.16 2°50.332 -999 347 16.8 101240 83
2005-10-12 10:41 51°17.96 2°50.227 -999 345 16.8 101250 83
2005-10-12 10:42 51°17.761 2°50.121 -999 345 16.8 101240 83
2005-10-12 10:43 51°17.563 2°50.014 -999 348 16.8 101240 83
2005-10-12 10:44 51°17.363 2°49.909 -999 349 16.8 101230 82
2005-10-12 10:45 51°17.164 2°49.803 -999 346 16.8 101240 82
2005-10-12 10:46 51°16.967 2°49.697 -999 348 16.8 101240 82
2005-10-12 10:47 51°16.77 2°49.594 -999 344 16.8 101240 82
2005-10-12 10:48 51°16.569 2°49.484 -999 346 16.8 101240 83
2005-10-12 10:49 51°16.373 2°49.379 -999 347 16.8 101240 83
2005-10-12 10:50 51°16.174 2°49.267 -999 345 16.8 101250 83
2005-10-12 10:51 51°15.974 2°49.16 -999 350 16.8 101240 83
2005-10-12 10:52 51°15.776 2°49.052 -999 346 16.8 101240 83
2005-10-12 10:53 51°15.579 2°48.94 -999 347 16.8 101250 82
2005-10-12 10:54 51°15.38 2°48.83 -999 347 16.8 101250 83
2005-10-12 10:55 51°15.18 2°48.716 -999 348 16.8 101250 82
2005-10-12 10:56 51°14.98 2°48.601 -999 349 16.8 101250 82
2005-10-12 10:57 51°14.778 2°48.485 -999 346 16.8 101250 83
2005-10-12 10:58 51°14.576 2°48.371 -999 343 16.8 101250 83
2005-10-12 10:59 51°14.373 2°48.258 -999 343 16.8 101250 82
2005-10-12 11:00 51°14.179 2°48.124 -999 342 16.8 101250 82
2005-10-12 11:01 51°14.058 2°48.051 -999 340 16.8 101270 83
2005-10-12 11:02 51°14.01 2°48.027 -999 302 16.8 101270 83
2005-10-12 11:03 51°14.016 2°48.021 -999 276 16.9 101270 83
2005-10-12 11:04 51°14.021 2°48.012 -999 263 16.9 101280 83
2005-10-12 11:05 51°14.026 2°48.002 -999 263 16.8 101270 83
2005-10-12 11:06 51°14.031 2°47.992 -999 262 16.8 101270 83
2005-10-12 11:07 51°14.036 2°47.981 -999 260 16.9 101280 83
2005-10-12 11:08 51°14.037 2°47.958 -999 286 16.8 101280 82
2005-10-12 11:09 51°14.026 2°47.92 -999 315 16.9 101270 83
2005-10-12 11:10 51°14.01 2°47.892 -999 337 16.9 101270 82
2005-10-12 11:11 51°13.992 2°47.876 -999 -999 16.9 101270 81
2005-10-12 11:12 51°13.977 2°47.877 -999 29 16.9 101270 81
2005-10-12 11:13 51°13.971 2°47.891 -999 61 16.9 101270 81
2005-10-12 11:14 51°13.974 2°47.901 -999 75 16.9 101260 81
2005-10-12 11:15 51°13.979 2°47.908 -999 86 16.8 101260 82
2005-10-12 11:16 51°13.986 2°47.915 -999 91 16.8 101270 82
2005-10-12 11:17 51°14 2°47.974 -999 84 16.8 101260 82
2005-10-12 11:18 51°14.013 2°48.082 -999 63 16.8 101260 82
2005-10-12 11:19 51°14.026 2°48.206 -999 65 16.8 101260 82
2005-10-12 11:20 51°14.03 2°48.338 -999 60 16.8 101250 82
2005-10-12 11:21 51°14.016 2°48.444 -999 56 16.8 101250 81
2005-10-12 11:22 51°14.007 2°48.528 -999 68 16.8 101250 81
2005-10-12 11:23 51°14.005 2°48.61 -999 69 16.9 101250 81
2005-10-12 11:24 51°14.005 2°48.687 -999 76 16.9 101250 81
2005-10-12 11:25 51°14.009 2°48.763 -999 79 16.9 101250 81
2005-10-12 11:26 51°14.023 2°48.834 -999 84 16.9 101250 80
2005-10-12 11:27 51°14.039 2°48.905 -999 91 17 101260 80
2005-10-12 11:28 51°14.054 2°48.975 -999 99 17 101260 80
2005-10-12 11:29 51°14.072 2°49.042 -999 100 17 101260 80
2005-10-12 11:30 51°14.089 2°49.104 -999 101 17 101260 80
2005-10-12 11:31 51°14.105 2°49.166 -999 89 17 101260 79
2005-10-12 11:32 51°14.122 2°49.226 -999 100 17 101260 80
2005-10-12 11:33 51°14.143 2°49.286 -999 110 17 101260 80
2005-10-12 11:34 51°14.163 2°49.347 -999 99 17.1 101250 80
2005-10-12 11:35 51°14.181 2°49.407 -999 97 17.1 101260 80
2005-10-12 11:36 51°14.197 2°49.468 -999 92 17.1 101250 80
2005-10-12 11:37 51°14.214 2°49.53 -999 98 17.1 101260 81
2005-10-12 11:38 51°14.234 2°49.591 -999 104 17.1 101260 81
2005-10-12 11:39 51°14.256 2°49.648 -999 102 17.1 101260 80
2005-10-12 11:40 51°14.279 2°49.705 -999 101 17.1 101250 79
2005-10-12 11:41 51°14.298 2°49.765 -999 99 17.2 101250 79
2005-10-12 11:42 51°14.318 2°49.825 -999 100 17.2 101250 79
2005-10-12 11:43 51°14.337 2°49.886 -999 99 17.2 101250 79
2005-10-12 11:44 51°14.355 2°49.946 -999 94 17.2 101250 80
2005-10-12 11:45 51°14.375 2°50.004 -999 100 17.2 101250 81
2005-10-12 11:46 51°14.398 2°50.06 -999 105 17.2 101250 81
2005-10-12 11:47 51°14.424 2°50.113 -999 103 17.2 101250 81
2005-10-12 11:48 51°14.448 2°50.169 -999 102 17.2 101250 80
2005-10-12 11:49 51°14.471 2°50.224 -999 104 17.3 101240 79
2005-10-12 11:50 51°14.495 2°50.28 -999 111 17.4 101250 79
2005-10-12 11:51 51°14.517 2°50.335 -999 106 17.4 101250 79
2005-10-12 11:52 51°14.541 2°50.391 -999 105 17.4 101250 79
2005-10-12 11:53 51°14.565 2°50.444 -999 104 17.4 101250 78
2005-10-12 11:54 51°14.589 2°50.501 -999 100 17.5 101250 79
2005-10-12 11:55 51°14.609 2°50.558 -999 97 17.5 101250 78
2005-10-12 11:56 51°14.628 2°50.618 -999 82 17.5 101240 79
2005-10-12 11:57 51°14.645 2°50.676 -999 83 17.5 101240 79
2005-10-12 11:58 51°14.659 2°50.737 -999 88 17.5 101240 78
2005-10-12 11:59 51°14.671 2°50.803 -999 79 17.5 101240 77
2005-10-12 12:00 51°14.679 2°50.876 -999 76 17.5 101240 78
2005-10-12 12:01 51°14.687 2°50.951 -999 80 17.5 101240 78
2005-10-12 12:02 51°14.693 2°51.027 -999 75 17.6 101240 78
2005-10-12 12:03 51°14.696 2°51.095 -999 73 17.6 101230 78
2005-10-12 12:04 51°14.695 2°51.136 -999 72 17.6 101240 77
2005-10-12 12:05 51°14.696 2°51.16 -999 80 17.7 101230 76
2005-10-12 12:06 51°14.682 2°51.227 -999 34 17.7 101230 76
2005-10-12 12:07 51°14.601 2°51.278 -999 356 17.7 101220 76
2005-10-12 12:08 51°14.502 2°51.259 -999 337 17.8 101230 75
2005-10-12 12:09 51°14.433 2°51.173 -999 315 17.8 101230 75
2005-10-12 12:10 51°14.39 2°51.084 -999 310 17.9 101230 75
2005-10-12 12:11 51°14.36 2°51.007 -999 309 17.9 101220 75
2005-10-12 12:12 51°14.333 2°50.937 -999 308 17.9 101230 76
2005-10-12 12:13 51°14.313 2°50.869 -999 293 18 101220 75
2005-10-12 12:14 51°14.295 2°50.799 -999 296 18 101220 74
2005-10-12 12:15 51°14.278 2°50.727 -999 301 18 101220 74
2005-10-12 12:16 51°14.26 2°50.659 -999 297 18.1 101220 74
2005-10-12 12:17 51°14.243 2°50.588 -999 293 18.1 101230 74
2005-10-12 12:18 51°14.226 2°50.519 -999 295 18.1 101220 74
2005-10-12 12:19 51°14.206 2°50.448 -999 296 18.1 101220 74
2005-10-12 12:20 51°14.188 2°50.38 -999 297 18.1 101220 73
2005-10-12 12:21 51°14.169 2°50.308 -999 292 18.1 101220 73
2005-10-12 12:22 51°14.149 2°50.238 -999 288 18.1 101220 74
2005-10-12 12:23 51°14.131 2°50.167 -999 295 18.1 101210 73
2005-10-12 12:24 51°14.112 2°50.097 -999 301 18.1 101210 73
2005-10-12 12:25 51°14.092 2°50.028 -999 301 18.2 101210 73
2005-10-12 12:26 51°14.073 2°49.958 -999 285 18.1 101210 74
2005-10-12 12:27 51°14.053 2°49.89 -999 295 18.2 101210 74
2005-10-12 12:28 51°14.033 2°49.821 -999 290 18.1 101210 74
2005-10-12 12:29 51°14.013 2°49.75 -999 291 18.1 101210 74
2005-10-12 12:30 51°13.993 2°49.681 -999 297 18.2 101210 74
2005-10-12 12:31 51°13.975 2°49.608 -999 292 18.1 101210 73
2005-10-12 12:32 51°13.956 2°49.539 -999 295 18.2 101210 73
2005-10-12 12:33 51°13.938 2°49.469 -999 295 18.2 101220 74
2005-10-12 12:34 51°13.919 2°49.399 -999 288 18.1 101210 73
2005-10-12 12:35 51°13.899 2°49.31 -999 276 18.1 101220 74
2005-10-12 12:36 51°13.886 2°49.206 -999 273 18.1 101220 73
2005-10-12 12:37 51°13.881 2°49.097 -999 263 18.1 101220 74
2005-10-12 12:38 51°13.887 2°48.985 -999 257 18.1 101220 73
2005-10-12 12:39 51°13.897 2°48.879 -999 256 18.1 101220 73
2005-10-12 12:40 51°13.896 2°48.797 -999 262 18.1 101220 73
2005-10-12 12:41 51°13.896 2°48.693 -999 262 18.1 101220 74
2005-10-12 12:42 51°13.997 2°48.592 -999 124 18.1 101230 74
2005-10-12 12:43 51°14.1 2°48.74 -999 77 18 101210 74
2005-10-12 12:44 51°14.166 2°48.997 -999 60 17.9 101210 75
2005-10-12 12:45 51°14.22 2°49.265 -999 58 17.9 101210 75
2005-10-12 12:46 51°14.274 2°49.533 -999 61 17.9 101200 74
2005-10-12 12:47 51°14.33 2°49.802 -999 64 17.9 101200 75
2005-10-12 12:48 51°14.384 2°50.066 -999 65 17.9 101210 74
2005-10-12 12:49 51°14.441 2°50.34 -999 67 17.9 101210 74
2005-10-12 12:50 51°14.498 2°50.605 -999 59 17.9 101210 73
2005-10-12 12:51 51°14.548 2°50.877 -999 62 17.9 101210 74
2005-10-12 12:52 51°14.586 2°51.153 -999 60 18 101200 73
2005-10-12 12:53 51°14.626 2°51.434 -999 55 18.1 101210 74
2005-10-12 12:54 51°14.666 2°51.711 -999 61 18.1 101210 73
2005-10-12 12:55 51°14.705 2°51.982 -999 57 18.2 101200 72
2005-10-12 12:56 51°14.719 2°52.269 -999 54 18.2 101210 72
2005-10-12 12:57 51°14.721 2°52.541 -999 50 18.3 101210 71
2005-10-12 12:58 51°14.72 2°52.727 -999 67 18.2 101210 72
2005-10-12 12:59 51°14.716 2°52.859 -999 47 18.3 101220 72
2005-10-12 13:00 51°14.699 2°52.94 -999 47 18.3 101210 71
2005-10-12 13:01 51°14.68 2°53.029 -999 58 18.4 101210 71
2005-10-12 13:02 51°14.663 2°53.302 -999 46 18.4 101210 71
2005-10-12 13:03 51°14.63 2°53.616 -999 54 18.4 101200 71
2005-10-12 13:04 51°14.593 2°53.934 -999 43 18.4 101190 70
2005-10-12 13:05 51°14.547 2°54.259 -999 38 18.6 101200 70
2005-10-12 13:06 51°14.489 2°54.563 -999 38 18.6 101210 70
2005-10-12 13:07 51°14.424 2°54.865 -999 24 18.7 101220 69
2005-10-12 13:08 51°14.34 2°55.131 -999 20 18.8 101210 68
2005-10-12 13:09 51°14.221 2°55.332 -999 14 18.9 101210 68
2005-10-12 13:10 51°14.106 2°55.432 -999 5 18.9 101210 68
2005-10-12 13:11 51°13.994 2°55.516 -999 357 18.9 101220 68
2005-10-12 13:12 51°13.879 2°55.599 -999 348 19 101220 68
2005-10-12 13:13 51°13.771 2°55.694 -999 8 19 101210 68
2005-10-12 13:14 51°13.698 2°55.821 -999 17 19 101220 68
2005-10-12 13:15 51°13.653 2°55.931 -999 18 19.1 101230 68
2005-10-12 13:16 51°13.623 2°56.03 -999 12 19.1 101220 67
2005-10-12 13:17 51°13.607 2°56.092 -999 25 19.1 101230 67